sensor_id;sensor_type;location;lat;lon;timestamp;temperature;humidity
74359;DHT22;62792;46.236;6.040;2022-09-17T00:03:07;23.50;60.70
74359;DHT22;62792;46.236;6.040;2022-09-17T00:08:10;23.50;60.50
74359;DHT22;62792;46.236;6.040;2022-09-17T00:13:15;23.50;60.50
74359;DHT22;62792;46.236;6.040;2022-09-17T00:18:18;23.50;60.30
74359;DHT22;62792;46.236;6.040;2022-09-17T00:23:20;23.50;60.30
74359;DHT22;62792;46.236;6.040;2022-09-17T00:28:24;23.50;60.10
74359;DHT22;62792;46.236;6.040;2022-09-17T00:33:27;23.50;60.30
74359;DHT22;62792;46.236;6.040;2022-09-17T00:38:29;23.50;60.50
74359;DHT22;62792;46.236;6.040;2022-09-17T00:43:35;23.50;60.30
74359;DHT22;62792;46.236;6.040;2022-09-17T00:48:38;23.60;60.50
74359;DHT22;62792;46.236;6.040;2022-09-17T00:53:41;23.60;60.30
74359;DHT22;62792;46.236;6.040;2022-09-17T00:58:45;23.60;60.40
74359;DHT22;62792;46.236;6.040;2022-09-17T01:03:49;23.60;60.20
74359;DHT22;62792;46.236;6.040;2022-09-17T01:08:55;23.50;60.20
74359;DHT22;62792;46.236;6.040;2022-09-17T01:14:06;23.60;59.40
74359;DHT22;62792;46.236;6.040;2022-09-17T01:19:16;23.60;59.30
74359;DHT22;62792;46.236;6.040;2022-09-17T01:29:51;23.60;60.40
74359;DHT22;62792;46.236;6.040;2022-09-17T01:35:00;23.60;59.20
74359;DHT22;62792;46.236;6.040;2022-09-17T01:40:06;23.60;59.20
74359;DHT22;62792;46.236;6.040;2022-09-17T01:45:11;23.70;59.20
74359;DHT22;62792;46.236;6.040;2022-09-17T01:50:24;23.60;60.00
74359;DHT22;62792;46.236;6.040;2022-09-17T01:55:28;23.60;59.90
74359;DHT22;62792;46.236;6.040;2022-09-17T02:00:32;23.70;59.00
74359;DHT22;62792;46.236;6.040;2022-09-17T02:05:38;23.70;59.00
74359;DHT22;62792;46.236;6.040;2022-09-17T02:10:42;23.70;59.10
74359;DHT22;62792;46.236;6.040;2022-09-17T02:15:48;23.70;59.20
74359;DHT22;62792;46.236;6.040;2022-09-17T02:20:56;23.70;58.80
74359;DHT22;62792;46.236;6.040;2022-09-17T02:26:01;23.70;59.10
74359;DHT22;62792;46.236;6.040;2022-09-17T02:31:05;23.80;58.90
74359;DHT22;62792;46.236;6.040;2022-09-17T02:36:10;23.80;59.00
74359;DHT22;62792;46.236;6.040;2022-09-17T02:41:13;23.70;58.90
74359;DHT22;62792;46.236;6.040;2022-09-17T02:46:23;23.70;59.10
74359;DHT22;62792;46.236;6.040;2022-09-17T02:51:32;23.70;58.90
74359;DHT22;62792;46.236;6.040;2022-09-17T02:56:39;23.70;59.10
74359;DHT22;62792;46.236;6.040;2022-09-17T03:01:47;23.70;59.20
74359;DHT22;62792;46.236;6.040;2022-09-17T03:06:52;23.80;58.80
74359;DHT22;62792;46.236;6.040;2022-09-17T03:11:55;23.70;58.80
74359;DHT22;62792;46.236;6.040;2022-09-17T03:16:57;23.70;59.00
74359;DHT22;62792;46.236;6.040;2022-09-17T03:22:01;23.70;59.00
74359;DHT22;62792;46.236;6.040;2022-09-17T03:27:04;23.70;58.90
74359;DHT22;62792;46.236;6.040;2022-09-17T03:32:07;23.70;58.70
74359;DHT22;62792;46.236;6.040;2022-09-17T03:37:11;23.70;58.70
74359;DHT22;62792;46.236;6.040;2022-09-17T03:42:14;23.70;58.90
74359;DHT22;62792;46.236;6.040;2022-09-17T03:47:16;23.70;58.80
74359;DHT22;62792;46.236;6.040;2022-09-17T03:52:20;23.70;58.70
74359;DHT22;62792;46.236;6.040;2022-09-17T03:57:23;23.60;58.70
74359;DHT22;62792;46.236;6.040;2022-09-17T04:02:25;23.60;59.70
74359;DHT22;62792;46.236;6.040;2022-09-17T04:07:29;23.60;58.80
74359;DHT22;62792;46.236;6.040;2022-09-17T04:12:32;23.60;59.70
74359;DHT22;62792;46.236;6.040;2022-09-17T04:17:35;23.60;59.90
74359;DHT22;62792;46.236;6.040;2022-09-17T04:22:39;23.60;59.50
74359;DHT22;62792;46.236;6.040;2022-09-17T04:27:42;23.60;59.80
74359;DHT22;62792;46.236;6.040;2022-09-17T04:32:44;23.50;59.80
74359;DHT22;62792;46.236;6.040;2022-09-17T04:37:52;23.50;59.70
74359;DHT22;62792;46.236;6.040;2022-09-17T04:42:55;23.50;59.90
74359;DHT22;62792;46.236;6.040;2022-09-17T04:47:59;23.50;59.70
74359;DHT22;62792;46.236;6.040;2022-09-17T04:53:04;23.40;59.70
74359;DHT22;62792;46.236;6.040;2022-09-17T04:58:07;23.40;59.60
74359;DHT22;62792;46.236;6.040;2022-09-17T05:03:09;23.40;59.30
74359;DHT22;62792;46.236;6.040;2022-09-17T05:08:13;23.40;59.30
74359;DHT22;62792;46.236;6.040;2022-09-17T05:13:16;23.40;59.20
74359;DHT22;62792;46.236;6.040;2022-09-17T05:18:19;23.40;59.30
74359;DHT22;62792;46.236;6.040;2022-09-17T05:23:23;23.30;59.00
74359;DHT22;62792;46.236;6.040;2022-09-17T05:28:25;23.40;59.10
74359;DHT22;62792;46.236;6.040;2022-09-17T05:33:28;23.30;59.00
74359;DHT22;62792;46.236;6.040;2022-09-17T05:38:32;23.30;59.20
74359;DHT22;62792;46.236;6.040;2022-09-17T05:43:35;23.30;59.10
74359;DHT22;62792;46.236;6.040;2022-09-17T05:48:37;23.20;59.00
74359;DHT22;62792;46.236;6.040;2022-09-17T05:53:41;23.30;58.90
74359;DHT22;62792;46.236;6.040;2022-09-17T05:58:44;23.30;59.00
74359;DHT22;62792;46.236;6.040;2022-09-17T06:03:47;23.30;59.00
74359;DHT22;62792;46.236;6.040;2022-09-17T06:08:51;23.30;59.00
74359;DHT22;62792;46.236;6.040;2022-09-17T06:13:53;23.30;59.00
74359;DHT22;62792;46.236;6.040;2022-09-17T06:18:56;23.30;59.20
74359;DHT22;62792;46.236;6.040;2022-09-17T06:24:00;23.30;59.20
74359;DHT22;62792;46.236;6.040;2022-09-17T06:29:03;23.20;59.10
74359;DHT22;62792;46.236;6.040;2022-09-17T06:34:06;23.30;58.90
74359;DHT22;62792;46.236;6.040;2022-09-17T06:39:09;23.30;59.00
74359;DHT22;62792;46.236;6.040;2022-09-17T06:44:13;23.40;58.80
74359;DHT22;62792;46.236;6.040;2022-09-17T06:49:16;23.30;58.90
74359;DHT22;62792;46.236;6.040;2022-09-17T06:54:20;23.30;59.10
74359;DHT22;62792;46.236;6.040;2022-09-17T06:59:22;23.30;58.90
74359;DHT22;62792;46.236;6.040;2022-09-17T07:04:25;23.30;59.00
74359;DHT22;62792;46.236;6.040;2022-09-17T07:09:29;23.30;58.80
74359;DHT22;62792;46.236;6.040;2022-09-17T07:14:32;23.30;58.60
74359;DHT22;62792;46.236;6.040;2022-09-17T07:19:34;23.30;58.70
74359;DHT22;62792;46.236;6.040;2022-09-17T07:24:38;23.30;58.60
74359;DHT22;62792;46.236;6.040;2022-09-17T07:29:41;23.30;58.80
74359;DHT22;62792;46.236;6.040;2022-09-17T07:34:43;23.30;58.70
74359;DHT22;62792;46.236;6.040;2022-09-17T07:39:48;23.30;58.60
74359;DHT22;62792;46.236;6.040;2022-09-17T07:44:50;23.30;58.70
74359;DHT22;62792;46.236;6.040;2022-09-17T07:49:53;23.30;58.70
74359;DHT22;62792;46.236;6.040;2022-09-17T07:54:57;23.30;58.90
74359;DHT22;62792;46.236;6.040;2022-09-17T07:59:59;23.30;58.70
74359;DHT22;62792;46.236;6.040;2022-09-17T08:05:02;23.30;58.70
74359;DHT22;62792;46.236;6.040;2022-09-17T08:10:07;23.40;58.60
74359;DHT22;62792;46.236;6.040;2022-09-17T08:15:09;23.30;58.60
74359;DHT22;62792;46.236;6.040;2022-09-17T08:20:12;23.40;58.60
74359;DHT22;62792;46.236;6.040;2022-09-17T08:25:17;23.30;58.50
74359;DHT22;62792;46.236;6.040;2022-09-17T08:30:20;23.40;58.70
74359;DHT22;62792;46.236;6.040;2022-09-17T08:35:22;23.30;58.60
74359;DHT22;62792;46.236;6.040;2022-09-17T08:40:27;23.40;58.50
74359;DHT22;62792;46.236;6.040;2022-09-17T08:45:31;23.40;58.60
74359;DHT22;62792;46.236;6.040;2022-09-17T08:50:34;23.40;58.60
74359;DHT22;62792;46.236;6.040;2022-09-17T08:55:41;23.40;58.60
74359;DHT22;62792;46.236;6.040;2022-09-17T09:00:45;23.40;58.50
74359;DHT22;62792;46.236;6.040;2022-09-17T09:05:49;23.50;58.40
74359;DHT22;62792;46.236;6.040;2022-09-17T09:10:54;23.50;58.60
74359;DHT22;62792;46.236;6.040;2022-09-17T09:15:58;23.50;58.50
74359;DHT22;62792;46.236;6.040;2022-09-17T09:21:03;23.50;58.60
74359;DHT22;62792;46.236;6.040;2022-09-17T09:26:14;23.50;58.40
74359;DHT22;62792;46.236;6.040;2022-09-17T09:31:24;23.50;58.70
74359;DHT22;62792;46.236;6.040;2022-09-17T09:36:31;23.60;58.50
74359;DHT22;62792;46.236;6.040;2022-09-17T09:41:37;23.60;58.40
74359;DHT22;62792;46.236;6.040;2022-09-17T09:46:50;23.60;57.40
74359;DHT22;62792;46.236;6.040;2022-09-17T09:51:58;23.60;57.40
74359;DHT22;62792;46.236;6.040;2022-09-17T09:57:05;23.70;57.20
74359;DHT22;62792;46.236;6.040;2022-09-17T10:02:08;23.60;58.70
74359;DHT22;62792;46.236;6.040;2022-09-17T10:07:11;23.70;57.40
74359;DHT22;62792;46.236;6.040;2022-09-17T10:12:16;23.80;57.40
74359;DHT22;62792;46.236;6.040;2022-09-17T10:17:19;23.80;57.40
74359;DHT22;62792;46.236;6.040;2022-09-17T10:22:23;23.80;57.40
74359;DHT22;62792;46.236;6.040;2022-09-17T10:27:28;23.70;57.60
74359;DHT22;62792;46.236;6.040;2022-09-17T10:32:31;23.70;57.40
74359;DHT22;62792;46.236;6.040;2022-09-17T10:37:35;23.80;57.40
74359;DHT22;62792;46.236;6.040;2022-09-17T10:42:44;23.80;57.50
74359;DHT22;62792;46.236;6.040;2022-09-17T10:47:46;23.80;57.50
74359;DHT22;62792;46.236;6.040;2022-09-17T10:52:49;23.90;57.30
74359;DHT22;62792;46.236;6.040;2022-09-17T11:03:30;23.90;57.40
74359;DHT22;62792;46.236;6.040;2022-09-17T11:08:41;23.90;57.30
74359;DHT22;62792;46.236;6.040;2022-09-17T11:13:49;23.90;57.30
74359;DHT22;62792;46.236;6.040;2022-09-17T11:18:56;24.00;57.30
74359;DHT22;62792;46.236;6.040;2022-09-17T11:24:07;24.00;57.40
74359;DHT22;62792;46.236;6.040;2022-09-17T11:29:19;24.10;57.20
74359;DHT22;62792;46.236;6.040;2022-09-17T11:34:29;24.10;57.10
74359;DHT22;62792;46.236;6.040;2022-09-17T11:39:37;24.10;57.10
74359;DHT22;62792;46.236;6.040;2022-09-17T11:44:43;24.10;57.10
74359;DHT22;62792;46.236;6.040;2022-09-17T11:49:49;24.10;57.40
74359;DHT22;62792;46.236;6.040;2022-09-17T11:54:54;24.10;57.10
74359;DHT22;62792;46.236;6.040;2022-09-17T11:59:59;24.10;57.10
74359;DHT22;62792;46.236;6.040;2022-09-17T12:05:06;24.10;57.20
74359;DHT22;62792;46.236;6.040;2022-09-17T12:10:21;24.10;57.20
74359;DHT22;62792;46.236;6.040;2022-09-17T12:15:27;24.10;57.20
74359;DHT22;62792;46.236;6.040;2022-09-17T12:20:33;24.20;57.00
74359;DHT22;62792;46.236;6.040;2022-09-17T12:25:37;24.10;57.10
74359;DHT22;62792;46.236;6.040;2022-09-17T12:30:43;24.20;57.20
74359;DHT22;62792;46.236;6.040;2022-09-17T12:41:22;24.10;57.30
74359;DHT22;62792;46.236;6.040;2022-09-17T12:46:34;24.10;57.00
74359;DHT22;62792;46.236;6.040;2022-09-17T12:51:43;24.30;57.20
74359;DHT22;62792;46.236;6.040;2022-09-17T12:56:52;24.30;57.10
74359;DHT22;62792;46.236;6.040;2022-09-17T13:01:58;24.30;56.90
74359;DHT22;62792;46.236;6.040;2022-09-17T13:07:11;24.30;57.10
74359;DHT22;62792;46.236;6.040;2022-09-17T13:12:21;24.40;57.00
74359;DHT22;62792;46.236;6.040;2022-09-17T13:17:28;24.40;56.90
74359;DHT22;62792;46.236;6.040;2022-09-17T13:22:32;24.40;56.80
74359;DHT22;62792;46.236;6.040;2022-09-17T13:27:47;24.50;56.80
74359;DHT22;62792;46.236;6.040;2022-09-17T13:32:50;24.50;56.70
74359;DHT22;62792;46.236;6.040;2022-09-17T13:37:53;24.60;56.70
74359;DHT22;62792;46.236;6.040;2022-09-17T13:43:05;24.70;56.70
74359;DHT22;62792;46.236;6.040;2022-09-17T13:48:09;24.60;56.30
74359;DHT22;62792;46.236;6.040;2022-09-17T13:53:15;24.70;56.60
74359;DHT22;62792;46.236;6.040;2022-09-17T13:58:22;24.80;56.40
74359;DHT22;62792;46.236;6.040;2022-09-17T14:08:49;24.80;56.30
74359;DHT22;62792;46.236;6.040;2022-09-17T14:13:58;24.80;56.60
74359;DHT22;62792;46.236;6.040;2022-09-17T14:19:27;24.90;56.40
74359;DHT22;62792;46.236;6.040;2022-09-17T14:24:36;25.00;56.20
74359;DHT22;62792;46.236;6.040;2022-09-17T14:29:52;25.10;56.30
74359;DHT22;62792;46.236;6.040;2022-09-17T14:34:57;25.10;56.30
74359;DHT22;62792;46.236;6.040;2022-09-17T14:39:59;25.20;56.40
74359;DHT22;62792;46.236;6.040;2022-09-17T14:45:04;25.20;56.00
74359;DHT22;62792;46.236;6.040;2022-09-17T14:50:19;25.50;55.60
74359;DHT22;62792;46.236;6.040;2022-09-17T14:55:22;25.80;55.10
74359;DHT22;62792;46.236;6.040;2022-09-17T15:00:29;26.30;54.40
74359;DHT22;62792;46.236;6.040;2022-09-17T15:05:34;26.40;53.40
74359;DHT22;62792;46.236;6.040;2022-09-17T15:10:44;26.50;53.40
74359;DHT22;62792;46.236;6.040;2022-09-17T15:15:59;26.40;53.30
74359;DHT22;62792;46.236;6.040;2022-09-17T15:21:05;26.40;53.40
74359;DHT22;62792;46.236;6.040;2022-09-17T15:26:08;26.30;54.50
74359;DHT22;62792;46.236;6.040;2022-09-17T15:31:14;26.50;53.50
74359;DHT22;62792;46.236;6.040;2022-09-17T15:36:19;26.50;53.40
74359;DHT22;62792;46.236;6.040;2022-09-17T15:41:23;26.40;53.40
74359;DHT22;62792;46.236;6.040;2022-09-17T15:46:29;26.30;54.80
74359;DHT22;62792;46.236;6.040;2022-09-17T15:51:33;26.30;54.70
74359;DHT22;62792;46.236;6.040;2022-09-17T15:56:36;26.40;53.80
74359;DHT22;62792;46.236;6.040;2022-09-17T16:01:51;26.50;53.60
74359;DHT22;62792;46.236;6.040;2022-09-17T16:06:56;26.70;53.60
74359;DHT22;62792;46.236;6.040;2022-09-17T16:11:59;26.70;53.30
74359;DHT22;62792;46.236;6.040;2022-09-17T16:17:13;26.70;53.40
74359;DHT22;62792;46.236;6.040;2022-09-17T16:22:20;26.80;53.40
74359;DHT22;62792;46.236;6.040;2022-09-17T16:27:24;26.90;53.10
74359;DHT22;62792;46.236;6.040;2022-09-17T16:32:28;27.00;53.20
74359;DHT22;62792;46.236;6.040;2022-09-17T16:37:31;27.00;53.30
74359;DHT22;62792;46.236;6.040;2022-09-17T16:42:34;27.00;53.30
74359;DHT22;62792;46.236;6.040;2022-09-17T16:47:38;27.00;53.10
74359;DHT22;62792;46.236;6.040;2022-09-17T16:52:41;27.00;53.10
74359;DHT22;62792;46.236;6.040;2022-09-17T16:57:45;26.90;53.20
74359;DHT22;62792;46.236;6.040;2022-09-17T17:02:52;26.80;53.60
74359;DHT22;62792;46.236;6.040;2022-09-17T17:07:55;26.70;53.60
74359;DHT22;62792;46.236;6.040;2022-09-17T17:12:58;26.60;53.90
74359;DHT22;62792;46.236;6.040;2022-09-17T17:18:02;26.40;54.10
74359;DHT22;62792;46.236;6.040;2022-09-17T17:23:04;26.40;54.20
74359;DHT22;62792;46.236;6.040;2022-09-17T17:28:07;26.20;55.40
74359;DHT22;62792;46.236;6.040;2022-09-17T17:33:11;26.00;55.30
74359;DHT22;62792;46.236;6.040;2022-09-17T17:38:15;25.90;55.70
74359;DHT22;62792;46.236;6.040;2022-09-17T17:43:18;25.80;55.80
74359;DHT22;62792;46.236;6.040;2022-09-17T17:48:22;25.70;55.90
74359;DHT22;62792;46.236;6.040;2022-09-17T17:53:25;25.60;56.10
74359;DHT22;62792;46.236;6.040;2022-09-17T17:58:27;25.50;56.40
74359;DHT22;62792;46.236;6.040;2022-09-17T18:03:32;25.40;56.20
74359;DHT22;62792;46.236;6.040;2022-09-17T18:08:35;25.40;56.40
74359;DHT22;62792;46.236;6.040;2022-09-17T18:13:38;25.30;56.50
74359;DHT22;62792;46.236;6.040;2022-09-17T18:18:43;25.20;56.50
74359;DHT22;62792;46.236;6.040;2022-09-17T18:23:46;25.10;56.40
74359;DHT22;62792;46.236;6.040;2022-09-17T18:28:49;25.10;56.40
74359;DHT22;62792;46.236;6.040;2022-09-17T18:33:57;25.00;56.40
74359;DHT22;62792;46.236;6.040;2022-09-17T18:39:00;25.00;56.80
74359;DHT22;62792;46.236;6.040;2022-09-17T18:44:24;25.00;56.70
74359;DHT22;62792;46.236;6.040;2022-09-17T18:49:28;24.90;56.50
74359;DHT22;62792;46.236;6.040;2022-09-17T18:54:31;24.80;57.00
74359;DHT22;62792;46.236;6.040;2022-09-17T18:59:33;24.70;56.70
74359;DHT22;62792;46.236;6.040;2022-09-17T19:04:37;24.70;56.90
74359;DHT22;62792;46.236;6.040;2022-09-17T19:09:40;24.60;57.20
74359;DHT22;62792;46.236;6.040;2022-09-17T19:14:43;24.70;56.80
74359;DHT22;62792;46.236;6.040;2022-09-17T19:19:46;24.60;57.10
74359;DHT22;62792;46.236;6.040;2022-09-17T19:24:49;24.50;57.30
74359;DHT22;62792;46.236;6.040;2022-09-17T19:29:52;24.50;57.10
74359;DHT22;62792;46.236;6.040;2022-09-17T19:34:56;24.30;57.30
74359;DHT22;62792;46.236;6.040;2022-09-17T19:40:01;24.40;57.40
74359;DHT22;62792;46.236;6.040;2022-09-17T19:45:04;24.30;57.40
74359;DHT22;62792;46.236;6.040;2022-09-17T19:50:09;24.20;57.60
74359;DHT22;62792;46.236;6.040;2022-09-17T19:55:11;24.30;57.70
74359;DHT22;62792;46.236;6.040;2022-09-17T20:00:15;24.20;57.70
74359;DHT22;62792;46.236;6.040;2022-09-17T20:05:19;24.20;57.60
74359;DHT22;62792;46.236;6.040;2022-09-17T20:10:21;24.20;57.60
74359;DHT22;62792;46.236;6.040;2022-09-17T20:15:24;24.10;57.80
74359;DHT22;62792;46.236;6.040;2022-09-17T20:20:28;24.10;57.70
74359;DHT22;62792;46.236;6.040;2022-09-17T20:25:30;24.10;57.80
74359;DHT22;62792;46.236;6.040;2022-09-17T20:30:33;24.00;57.60
74359;DHT22;62792;46.236;6.040;2022-09-17T20:35:37;24.00;57.80
74359;DHT22;62792;46.236;6.040;2022-09-17T20:40:40;24.00;57.40
74359;DHT22;62792;46.236;6.040;2022-09-17T20:45:42;24.00;57.40
74359;DHT22;62792;46.236;6.040;2022-09-17T20:50:54;23.90;57.30
74359;DHT22;62792;46.236;6.040;2022-09-17T20:55:58;23.90;57.40
74359;DHT22;62792;46.236;6.040;2022-09-17T21:01:05;23.90;57.40
74359;DHT22;62792;46.236;6.040;2022-09-17T21:06:14;23.90;57.30
74359;DHT22;62792;46.236;6.040;2022-09-17T21:11:18;23.90;57.40
74359;DHT22;62792;46.236;6.040;2022-09-17T21:16:21;23.80;57.40
74359;DHT22;62792;46.236;6.040;2022-09-17T21:21:25;23.70;57.10
74359;DHT22;62792;46.236;6.040;2022-09-17T21:26:28;23.80;57.00
74359;DHT22;62792;46.236;6.040;2022-09-17T21:31:31;23.70;57.20
74359;DHT22;62792;46.236;6.040;2022-09-17T21:36:36;23.60;57.10
74359;DHT22;62792;46.236;6.040;2022-09-17T21:41:39;23.70;57.10
74359;DHT22;62792;46.236;6.040;2022-09-17T21:46:43;23.70;56.80
74359;DHT22;62792;46.236;6.040;2022-09-17T21:51:47;23.70;56.90
74359;DHT22;62792;46.236;6.040;2022-09-17T21:56:50;23.60;56.90
74359;DHT22;62792;46.236;6.040;2022-09-17T22:01:52;23.60;56.80
74359;DHT22;62792;46.236;6.040;2022-09-17T22:06:56;23.60;57.90
74359;DHT22;62792;46.236;6.040;2022-09-17T22:12:00;23.50;58.00
74359;DHT22;62792;46.236;6.040;2022-09-17T22:17:06;23.60;56.70
74359;DHT22;62792;46.236;6.040;2022-09-17T22:22:10;23.50;57.70
74359;DHT22;62792;46.236;6.040;2022-09-17T22:27:13;23.50;57.60
74359;DHT22;62792;46.236;6.040;2022-09-17T22:32:15;23.50;57.60
74359;DHT22;62792;46.236;6.040;2022-09-17T22:37:19;23.50;57.60
74359;DHT22;62792;46.236;6.040;2022-09-17T22:42:22;23.50;57.30
74359;DHT22;62792;46.236;6.040;2022-09-17T22:47:24;23.40;57.50
74359;DHT22;62792;46.236;6.040;2022-09-17T22:52:28;23.40;57.40
74359;DHT22;62792;46.236;6.040;2022-09-17T22:57:31;23.30;57.50
74359;DHT22;62792;46.236;6.040;2022-09-17T23:02:34;23.40;57.30
74359;DHT22;62792;46.236;6.040;2022-09-17T23:07:38;23.30;57.30
74359;DHT22;62792;46.236;6.040;2022-09-17T23:12:41;23.30;57.30
74359;DHT22;62792;46.236;6.040;2022-09-17T23:17:43;23.30;57.10
74359;DHT22;62792;46.236;6.040;2022-09-17T23:22:47;23.30;57.20
74359;DHT22;62792;46.236;6.040;2022-09-17T23:27:50;23.30;57.20
74359;DHT22;62792;46.236;6.040;2022-09-17T23:32:53;23.30;57.10
74359;DHT22;62792;46.236;6.040;2022-09-17T23:37:57;23.20;57.00
74359;DHT22;62792;46.236;6.040;2022-09-17T23:43:00;23.20;57.10
74359;DHT22;62792;46.236;6.040;2022-09-17T23:48:03;23.20;56.70
74359;DHT22;62792;46.236;6.040;2022-09-17T23:53:07;23.20;57.00
74359;DHT22;62792;46.236;6.040;2022-09-17T23:58:09;23.30;56.90
